createdAt,value
2023-04-26T00:00:13.140Z,1633.00
2023-04-26T00:01:13.190Z,1629.00
2023-04-26T00:02:13.277Z,1628.00
2023-04-26T00:03:13.561Z,1629.00
2023-04-26T00:04:13.486Z,1627.00
2023-04-26T00:05:13.458Z,1626.00
2023-04-26T00:06:13.433Z,1624.00
2023-04-26T00:07:13.521Z,1621.00
2023-04-26T00:08:13.566Z,1619.00
2023-04-26T00:09:13.588Z,1616.00
2023-04-26T00:10:13.646Z,1617.00
2023-04-26T00:11:13.684Z,1615.00
2023-04-26T00:12:13.735Z,1613.00
2023-04-26T00:13:13.800Z,1610.00
2023-04-26T00:14:13.870Z,1610.00
2023-04-26T00:15:13.906Z,1617.00
2023-04-26T00:16:14.024Z,1617.00
2023-04-26T00:17:14.015Z,1615.00
2023-04-26T00:18:14.100Z,1615.00
2023-04-26T00:19:14.123Z,1613.00
2023-04-26T00:20:14.191Z,1614.00
2023-04-26T00:21:14.234Z,1614.00
2023-04-26T00:22:14.285Z,1610.00
2023-04-26T00:23:14.350Z,1611.00
2023-04-26T00:24:14.397Z,1608.00
2023-04-26T00:25:14.446Z,1604.00
2023-04-26T00:26:14.507Z,1607.00
2023-04-26T00:27:14.557Z,1606.00
2023-04-26T00:28:14.612Z,1606.00
2023-04-26T00:29:14.667Z,1609.00
2023-04-26T00:30:14.731Z,1609.00
2023-04-26T00:31:14.804Z,1604.00
2023-04-26T00:32:14.846Z,1603.00
2023-04-26T00:33:14.892Z,1604.00
2023-04-26T00:34:14.945Z,1599.00
2023-04-26T00:35:15.013Z,1599.00
2023-04-26T00:36:15.047Z,1598.00
2023-04-26T00:37:15.098Z,1593.00
2023-04-26T00:38:15.154Z,1589.00
2023-04-26T00:39:15.209Z,1585.00
2023-04-26T00:40:15.246Z,1583.00
2023-04-26T00:41:15.298Z,1583.00
2023-04-26T00:42:15.369Z,1580.00
2023-04-26T00:43:15.401Z,1578.00
2023-04-26T00:44:15.459Z,1582.00
2023-04-26T00:45:15.515Z,1586.00
2023-04-26T00:46:15.616Z,1585.00
2023-04-26T00:47:15.591Z,1585.00
2023-04-26T00:48:15.644Z,1587.00
2023-04-26T00:49:15.697Z,1589.00
2023-04-26T00:50:15.755Z,1587.00
2023-04-26T00:51:15.790Z,1587.00
2023-04-26T00:52:15.853Z,1581.00
2023-04-26T00:53:15.889Z,1581.00
2023-04-26T00:54:15.930Z,1578.00
2023-04-26T00:55:15.994Z,1582.00
2023-04-26T00:56:16.034Z,1577.00
2023-04-26T00:57:16.079Z,1574.00
2023-04-26T00:58:16.150Z,1574.00
2023-04-26T00:59:16.188Z,1582.00
2023-04-26T01:00:16.248Z,1581.00
2023-04-26T01:01:16.329Z,1581.00
2023-04-26T01:02:16.412Z,1578.00
2023-04-26T01:03:16.509Z,1576.00
2023-04-26T01:04:16.569Z,1580.00
2023-04-26T01:05:16.502Z,1580.00
2023-04-26T01:06:16.652Z,1582.00
2023-04-26T01:07:16.610Z,1579.00
2023-04-26T01:08:16.668Z,1578.00
2023-04-26T01:09:16.716Z,1581.00
2023-04-26T01:10:16.775Z,1582.00
2023-04-26T01:11:16.827Z,1582.00
2023-04-26T01:12:16.886Z,1578.00
2023-04-26T01:13:16.944Z,1574.00
2023-04-26T01:14:17.027Z,1573.00
2023-04-26T01:15:17.084Z,1567.00
2023-04-26T01:16:17.109Z,1565.00
2023-04-26T01:17:17.238Z,1563.00
2023-04-26T01:18:17.222Z,1562.00
2023-04-26T01:19:17.279Z,1559.00
2023-04-26T01:20:17.351Z,1556.00
2023-04-26T01:21:17.400Z,1555.00
2023-04-26T01:22:17.458Z,1557.00
2023-04-26T01:23:17.523Z,1556.00
2023-04-26T01:24:17.560Z,1555.00
2023-04-26T01:25:17.626Z,1552.00
2023-04-26T01:26:17.691Z,1551.00
2023-04-26T01:27:17.753Z,1549.00
2023-04-26T01:28:17.801Z,1553.00
2023-04-26T01:29:17.894Z,1550.00
2023-04-26T01:30:17.919Z,1547.00
2023-04-26T01:31:17.990Z,1547.00
2023-04-26T01:32:18.012Z,1549.00
2023-04-26T01:33:18.066Z,1546.00
2023-04-26T01:34:18.145Z,1544.00
2023-04-26T01:35:18.172Z,1543.00
2023-04-26T01:36:18.223Z,1540.00
2023-04-26T01:37:18.272Z,1535.00
2023-04-26T01:38:18.328Z,1536.00
2023-04-26T01:39:18.378Z,1534.00
2023-04-26T01:40:18.427Z,1537.00
2023-04-26T01:41:18.468Z,1536.00
2023-04-26T01:42:18.514Z,1539.00
2023-04-26T01:43:18.563Z,1540.00
2023-04-26T01:44:18.599Z,1538.00
2023-04-26T01:45:18.665Z,1536.00
2023-04-26T01:46:18.710Z,1537.00
2023-04-26T01:47:18.737Z,1535.00
2023-04-26T01:48:18.784Z,1537.00
2023-04-26T01:49:18.834Z,1542.00
2023-04-26T01:50:18.872Z,1538.00
2023-04-26T01:51:18.918Z,1535.00
2023-04-26T01:52:18.965Z,1532.00
2023-04-26T01:53:18.985Z,1531.00
2023-04-26T01:54:19.028Z,1534.00
2023-04-26T01:55:19.067Z,1529.00
2023-04-26T01:56:19.106Z,1525.00
2023-04-26T01:57:19.143Z,1523.00
2023-04-26T01:58:19.178Z,1522.00
2023-04-26T01:59:19.227Z,1519.00
2023-04-26T02:00:19.254Z,1519.00
2023-04-26T02:01:19.317Z,1517.00
2023-04-26T02:02:19.339Z,1516.00
2023-04-26T02:03:19.481Z,1519.00
2023-04-26T02:04:19.415Z,1518.00
2023-04-26T02:05:19.547Z,1520.00
2023-04-26T02:06:19.493Z,1519.00
2023-04-26T02:07:19.529Z,1520.00
2023-04-26T02:08:19.570Z,1518.00
2023-04-26T02:09:19.622Z,1518.00
2023-04-26T02:10:19.658Z,1520.00
2023-04-26T02:11:19.720Z,1519.00
2023-04-26T02:12:19.750Z,1520.00
2023-04-26T02:13:19.792Z,1524.00
2023-04-26T02:14:19.847Z,1524.00
2023-04-26T02:15:19.899Z,1525.00
2023-04-26T02:16:19.986Z,1529.00
2023-04-26T02:17:19.973Z,1530.00
2023-04-26T02:18:20.014Z,1527.00
2023-04-26T02:19:20.083Z,1524.00
2023-04-26T02:20:20.115Z,1521.00
2023-04-26T02:21:20.149Z,1517.00
2023-04-26T02:22:20.196Z,1514.00
2023-04-26T02:23:20.266Z,1512.00
2023-04-26T02:24:20.277Z,1510.00
2023-04-26T02:25:20.328Z,1506.00
2023-04-26T02:26:20.371Z,1506.00
2023-04-26T02:27:20.433Z,1507.00
2023-04-26T02:28:20.471Z,1509.00
2023-04-26T02:29:26.901Z,1507.00
2023-04-26T02:30:21.501Z,1505.00
2023-04-26T02:31:22.900Z,1505.00
2023-04-26T02:32:20.480Z,1502.00
2023-04-26T02:33:20.465Z,1502.00
2023-04-26T02:34:20.473Z,1505.00
2023-04-26T02:35:20.447Z,1505.00
2023-04-26T02:36:20.440Z,1510.00
2023-04-26T02:37:20.415Z,1511.00
2023-04-26T02:38:20.414Z,1507.00
2023-04-26T02:39:20.402Z,1500.00
2023-04-26T02:40:20.415Z,1497.00
2023-04-26T02:41:20.394Z,1496.00
2023-04-26T02:42:20.392Z,1499.00
2023-04-26T02:43:20.378Z,1499.00
2023-04-26T02:44:20.365Z,1497.00
2023-04-26T02:45:20.354Z,1498.00
2023-04-26T02:46:20.361Z,1503.00
2023-04-26T02:47:20.331Z,1504.00
2023-04-26T02:48:20.314Z,1502.00
2023-04-26T02:49:20.306Z,1504.00
2023-04-26T02:50:20.321Z,1509.00
2023-04-26T02:51:20.278Z,1510.00
2023-04-26T02:52:20.270Z,1508.00
2023-04-26T02:53:20.249Z,1503.00
2023-04-26T02:54:20.240Z,1506.00
2023-04-26T02:55:20.233Z,1508.00
2023-04-26T02:56:20.212Z,1504.00
2023-04-26T02:57:20.200Z,1501.00
2023-04-26T02:58:20.182Z,1503.00
2023-04-26T02:59:20.171Z,1501.00
2023-04-26T03:00:20.154Z,1503.00
2023-04-26T03:01:20.159Z,1504.00
2023-04-26T03:02:20.242Z,1502.00
2023-04-26T03:03:20.402Z,1498.00
2023-04-26T03:04:20.173Z,1497.00
2023-04-26T03:05:20.111Z,1492.00
2023-04-26T03:06:20.076Z,1490.00
2023-04-26T03:07:20.072Z,1486.00
2023-04-26T03:08:20.046Z,1487.00
2023-04-26T03:09:20.038Z,1487.00
2023-04-26T03:10:20.031Z,1489.00
2023-04-26T03:11:20.033Z,1492.00
2023-04-26T03:12:20.021Z,1496.00
2023-04-26T03:13:20.041Z,1493.00
2023-04-26T03:14:20.055Z,1492.00
2023-04-26T03:15:19.983Z,1489.00
2023-04-26T03:16:20.005Z,1488.00
2023-04-26T03:17:19.981Z,1485.00
2023-04-26T03:18:19.947Z,1482.00
2023-04-26T03:19:19.947Z,1481.00
2023-04-26T03:20:19.920Z,1479.00
2023-04-26T03:21:19.955Z,1480.00
2023-04-26T03:22:19.994Z,1482.00
2023-04-26T03:23:20.044Z,1478.00
2023-04-26T03:24:20.089Z,1478.00
2023-04-26T03:25:20.135Z,1473.00
2023-04-26T03:26:20.182Z,1474.00
2023-04-26T03:27:20.281Z,1476.00
2023-04-26T03:28:20.270Z,1475.00
2023-04-26T03:29:20.323Z,1478.00
2023-04-26T03:30:20.368Z,1475.00
2023-04-26T03:31:20.464Z,1471.00
2023-04-26T03:32:20.461Z,1474.00
2023-04-26T03:33:20.510Z,1474.00
2023-04-26T03:34:20.558Z,1472.00
2023-04-26T03:35:20.602Z,1470.00
2023-04-26T03:36:20.656Z,1466.00
2023-04-26T03:37:20.684Z,1467.00
2023-04-26T03:38:20.721Z,1468.00
2023-04-26T03:39:20.777Z,1466.00
2023-04-26T03:40:20.811Z,1466.00
2023-04-26T03:41:20.865Z,1458.00
2023-04-26T03:42:20.903Z,1458.00
2023-04-26T03:43:20.940Z,1458.00
2023-04-26T03:44:20.982Z,1461.00
2023-04-26T03:45:21.024Z,1459.00
2023-04-26T03:46:21.081Z,1455.00
2023-04-26T03:47:21.117Z,1453.00
2023-04-26T03:48:21.160Z,1455.00
2023-04-26T03:49:21.198Z,1456.00
2023-04-26T03:50:21.254Z,1456.00
2023-04-26T03:51:21.280Z,1459.00
2023-04-26T03:52:21.328Z,1454.00
2023-04-26T03:53:21.374Z,1454.00
2023-04-26T03:54:21.426Z,1456.00
2023-04-26T03:55:21.474Z,1452.00
2023-04-26T03:56:21.501Z,1451.00
2023-04-26T03:57:21.563Z,1448.00
2023-04-26T03:58:21.612Z,1446.00
2023-04-26T03:59:21.653Z,1444.00
2023-04-26T04:00:21.710Z,1445.00
2023-04-26T04:01:21.769Z,1445.00
2023-04-26T04:02:21.901Z,1444.00
2023-04-26T04:03:22.031Z,1441.00
2023-04-26T04:04:22.042Z,1438.00
2023-04-26T04:05:22.013Z,1436.00
2023-04-26T04:06:21.973Z,1438.00
2023-04-26T04:07:22.011Z,1441.00
2023-04-26T04:08:22.054Z,1441.00
2023-04-26T04:09:22.119Z,1439.00
2023-04-26T04:10:22.152Z,1437.00
2023-04-26T04:11:22.219Z,1438.00
2023-04-26T04:12:22.238Z,1435.00
2023-04-26T04:13:22.311Z,1436.00
2023-04-26T04:14:22.338Z,1439.00
2023-04-26T04:15:22.375Z,1440.00
2023-04-26T04:16:22.536Z,1443.00
2023-04-26T04:17:22.485Z,1442.00
2023-04-26T04:18:22.506Z,1438.00
2023-04-26T04:19:22.558Z,1437.00
2023-04-26T04:20:22.579Z,1437.00
2023-04-26T04:21:22.620Z,1435.00
2023-04-26T04:22:22.654Z,1437.00
2023-04-26T04:23:22.687Z,1436.00
2023-04-26T04:24:22.731Z,1436.00
2023-04-26T04:25:22.782Z,1439.00
2023-04-26T04:26:22.806Z,1443.00
2023-04-26T04:27:22.845Z,1439.00
2023-04-26T04:28:22.886Z,1441.00
2023-04-26T04:29:22.939Z,1436.00
2023-04-26T04:30:23.001Z,1436.00
2023-04-26T04:31:23.088Z,1439.00
2023-04-26T04:32:23.086Z,1440.00
2023-04-26T04:33:23.112Z,1440.00
2023-04-26T04:34:23.141Z,1439.00
2023-04-26T04:35:23.189Z,1438.00
2023-04-26T04:36:23.237Z,1435.00
2023-04-26T04:37:23.282Z,1435.00
2023-04-26T04:38:23.380Z,1436.00
2023-04-26T04:39:23.366Z,1431.00
2023-04-26T04:40:23.415Z,1435.00
2023-04-26T04:41:23.514Z,1430.00
2023-04-26T04:42:23.513Z,1427.00
2023-04-26T04:43:23.549Z,1427.00
2023-04-26T04:44:23.597Z,1426.00
2023-04-26T04:45:23.639Z,1426.00
2023-04-26T04:46:23.709Z,1426.00
2023-04-26T04:47:23.794Z,1422.00
2023-04-26T04:48:23.779Z,1424.00
2023-04-26T04:49:23.816Z,1426.00
2023-04-26T04:50:23.871Z,1421.00
2023-04-26T04:51:23.904Z,1419.00
2023-04-26T04:52:23.947Z,1421.00
2023-04-26T04:53:23.988Z,1420.00
2023-04-26T04:54:24.039Z,1418.00
2023-04-26T04:55:24.075Z,1414.00
2023-04-26T04:56:24.137Z,1408.00
2023-04-26T04:57:24.164Z,1406.00
2023-04-26T04:58:24.195Z,1404.00
2023-04-26T04:59:24.237Z,1405.00
2023-04-26T05:00:24.278Z,1406.00
2023-04-26T05:01:24.349Z,1407.00
2023-04-26T05:02:24.474Z,1406.00
2023-04-26T05:03:24.594Z,1410.00
2023-04-26T05:04:24.676Z,1407.00
2023-04-26T05:05:24.469Z,1413.00
2023-04-26T05:06:24.502Z,1413.00
2023-04-26T05:07:24.776Z,1411.00
2023-04-26T05:08:24.584Z,1412.00
2023-04-26T05:09:24.618Z,1414.00
2023-04-26T05:10:24.648Z,1411.00
2023-04-26T05:11:24.679Z,1412.00
2023-04-26T05:12:24.703Z,1409.00
2023-04-26T05:13:24.727Z,1408.00
2023-04-26T05:14:24.757Z,1409.00
2023-04-26T05:15:24.797Z,1410.00
2023-04-26T05:16:24.893Z,1405.00
2023-04-26T05:17:24.884Z,1405.00
2023-04-26T05:18:24.890Z,1405.00
2023-04-26T05:19:24.915Z,1402.00
2023-04-26T05:20:24.987Z,1405.00
2023-04-26T05:21:24.973Z,1425.00
2023-04-26T05:22:25.007Z,1339.00
2023-04-26T05:23:25.040Z,1375.00
2023-04-26T05:24:25.074Z,1392.00
2023-04-26T05:25:25.078Z,1428.00
2023-04-26T05:26:25.101Z,1429.00
2023-04-26T05:27:25.129Z,1422.00
2023-04-26T05:28:25.132Z,1413.00
2023-04-26T05:29:25.153Z,1421.00
2023-04-26T05:30:25.167Z,1427.00
2023-04-26T05:31:25.223Z,1428.00
2023-04-26T05:32:25.186Z,1427.00
2023-04-26T05:33:25.270Z,1432.00
2023-04-26T05:34:25.216Z,1433.00
2023-04-26T05:35:25.235Z,1435.00
2023-04-26T05:36:26.397Z,1437.00
2023-04-26T05:37:25.257Z,1440.00
2023-04-26T05:38:25.279Z,1440.00
2023-04-26T05:39:25.297Z,1440.00
2023-04-26T05:40:25.315Z,1437.00
2023-04-26T05:41:25.318Z,1435.00
2023-04-26T05:42:25.331Z,1435.00
2023-04-26T05:43:25.353Z,1438.00
2023-04-26T05:44:25.367Z,1440.00
2023-04-26T05:45:25.415Z,1437.00
2023-04-26T05:46:25.401Z,1436.00
2023-04-26T05:47:25.385Z,1441.00
2023-04-26T05:48:25.400Z,1443.00
2023-04-26T05:49:25.403Z,1447.00
2023-04-26T05:50:25.409Z,1447.00
2023-04-26T05:51:25.424Z,1451.00
2023-04-26T05:52:25.433Z,1451.00
2023-04-26T05:53:25.439Z,1456.00
2023-04-26T05:54:25.443Z,1456.00
2023-04-26T05:55:25.479Z,1455.00
2023-04-26T05:56:25.450Z,1451.00
2023-04-26T05:57:25.477Z,1450.00
2023-04-26T05:58:25.447Z,1453.00
2023-04-26T05:59:25.439Z,1461.00
2023-04-26T06:00:25.434Z,1466.00
2023-04-26T06:01:25.428Z,1470.00
2023-04-26T06:02:25.632Z,1471.00
2023-04-26T06:03:25.513Z,1475.00
2023-04-26T06:04:25.526Z,1475.00
2023-04-26T06:05:25.514Z,1480.00
2023-04-26T06:06:25.389Z,1478.00
2023-04-26T06:07:25.377Z,1479.00
2023-04-26T06:08:25.394Z,1481.00
2023-04-26T06:09:25.424Z,1485.00
2023-04-26T06:10:25.445Z,1490.00
2023-04-26T06:11:25.371Z,1491.00
2023-04-26T06:12:25.379Z,1491.00
2023-04-26T06:13:25.364Z,1491.00
2023-04-26T06:14:30.473Z,1493.00
2023-04-26T06:15:26.342Z,1494.00
2023-04-26T06:16:25.335Z,1497.00
2023-04-26T06:17:25.401Z,1500.00
2023-04-26T06:18:25.276Z,1498.00
2023-04-26T06:19:25.282Z,1497.00
2023-04-26T06:20:25.222Z,1493.00
2023-04-26T06:21:25.208Z,1492.00
2023-04-26T06:22:25.190Z,1493.00
2023-04-26T06:23:25.196Z,1492.00
2023-04-26T06:24:25.231Z,1189.00
2023-04-26T06:25:25.258Z,1013.00
2023-04-26T06:26:25.276Z,782.00
2023-04-26T06:27:25.269Z,739.00
2023-04-26T06:28:25.297Z,805.00
2023-04-26T06:29:25.395Z,776.00
2023-04-26T06:30:25.421Z,764.00
2023-04-26T06:31:25.517Z,757.00
2023-04-26T06:32:25.591Z,735.00
2023-04-26T06:33:25.592Z,645.00
2023-04-26T06:34:25.620Z,648.00
2023-04-26T06:35:25.658Z,605.00
2023-04-26T06:36:25.665Z,551.00
2023-04-26T06:37:25.674Z,563.00
2023-04-26T06:38:25.691Z,557.00
2023-04-26T06:39:25.726Z,526.00
2023-04-26T06:40:25.741Z,520.00
2023-04-26T06:41:25.746Z,517.00
2023-04-26T06:42:25.806Z,520.00
2023-04-26T06:43:25.774Z,528.00
2023-04-26T06:44:25.812Z,523.00
2023-04-26T06:45:25.813Z,519.00
2023-04-26T06:46:25.867Z,520.00
2023-04-26T06:47:25.905Z,521.00
2023-04-26T06:48:25.856Z,529.00
2023-04-26T06:49:25.862Z,530.00
2023-04-26T06:50:26.008Z,533.00
2023-04-26T06:51:25.904Z,534.00
2023-04-26T06:52:25.968Z,537.00
2023-04-26T06:53:26.018Z,544.00
2023-04-26T06:54:26.049Z,544.00
2023-04-26T06:55:26.094Z,539.00
2023-04-26T06:56:26.154Z,537.00
2023-04-26T06:57:26.230Z,532.00
2023-04-26T06:58:26.515Z,532.00
2023-04-26T06:59:26.269Z,523.00
2023-04-26T07:00:26.306Z,525.00
2023-04-26T07:01:26.368Z,530.00
2023-04-26T07:02:26.557Z,538.00
2023-04-26T07:03:26.609Z,549.00
2023-04-26T07:04:26.648Z,557.00
2023-04-26T07:05:26.581Z,620.00
2023-04-26T07:06:27.370Z,632.00
2023-04-26T07:07:26.654Z,621.00
2023-04-26T07:08:26.693Z,612.00
2023-04-26T07:09:26.715Z,620.00
2023-04-26T07:10:26.785Z,672.00
2023-04-26T07:11:26.790Z,656.00
2023-04-26T07:12:26.796Z,656.00
2023-04-26T07:13:26.950Z,646.00
2023-04-26T07:14:26.875Z,636.00
2023-04-26T07:15:26.956Z,697.00
2023-04-26T07:16:27.055Z,689.00
2023-04-26T07:17:26.908Z,710.00
2023-04-26T07:18:26.923Z,792.00
2023-04-26T07:19:26.907Z,790.00
2023-04-26T07:20:26.913Z,791.00
2023-04-26T07:21:26.980Z,796.00
2023-04-26T07:22:26.914Z,876.00
2023-04-26T07:23:26.891Z,871.00
2023-04-26T07:24:26.870Z,984.00
2023-04-26T07:25:26.870Z,990.00
2023-04-26T07:26:26.918Z,990.00
2023-04-26T07:27:26.806Z,1006.00
2023-04-26T07:28:26.768Z,1105.00
2023-04-26T07:29:26.742Z,1175.00
2023-04-26T07:30:26.810Z,1237.00
2023-04-26T07:31:26.672Z,1266.00
2023-04-26T07:32:26.689Z,1316.00
2023-04-26T07:33:26.671Z,1344.00
2023-04-26T07:34:26.579Z,1432.00
2023-04-26T07:35:26.548Z,1436.00
2023-04-26T07:36:26.514Z,1441.00
2023-04-26T07:37:26.466Z,1449.00
2023-04-26T07:38:26.437Z,1460.00
2023-04-26T07:39:26.468Z,1473.00
2023-04-26T07:40:26.471Z,1518.00
2023-04-26T07:41:26.482Z,1569.00
2023-04-26T07:42:26.510Z,1574.00
2023-04-26T07:43:26.547Z,1598.00
2023-04-26T07:44:26.561Z,1622.00
2023-04-26T07:45:26.588Z,1687.00
2023-04-26T07:46:26.644Z,1724.00
2023-04-26T07:47:26.667Z,1727.00
2023-04-26T07:48:26.634Z,1735.00
2023-04-26T07:49:26.660Z,1756.00
2023-04-26T07:50:26.672Z,1782.00
2023-04-26T07:51:26.688Z,1799.00
2023-04-26T07:52:26.692Z,1840.00
2023-04-26T07:53:26.660Z,1876.00
2023-04-26T07:54:26.641Z,1904.00
2023-04-26T07:55:26.592Z,1932.00
2023-04-26T07:56:26.555Z,1946.00
2023-04-26T07:57:26.506Z,1967.00
2023-04-26T07:58:26.479Z,2004.00
2023-04-26T07:59:26.427Z,2022.00
2023-04-26T08:00:26.393Z,2045.00
2023-04-26T08:01:26.349Z,2165.00
2023-04-26T08:02:41.056Z,2173.00
2023-04-26T08:03:27.570Z,2176.00
2023-04-26T08:04:26.484Z,2177.00
2023-04-26T08:05:26.473Z,2193.00
2023-04-26T08:06:26.187Z,2216.00
2023-04-26T08:07:26.118Z,2287.00
2023-04-26T08:08:26.087Z,2298.00
2023-04-26T08:09:26.047Z,2319.00
2023-04-26T08:10:26.014Z,2338.00
2023-04-26T08:11:26.000Z,2350.00
2023-04-26T08:12:25.930Z,2374.00
2023-04-26T08:13:29.155Z,2386.00
2023-04-26T08:14:25.851Z,2395.00
2023-04-26T08:15:25.800Z,2401.00
2023-04-26T08:16:25.815Z,2400.00
2023-04-26T08:17:25.820Z,2379.00
2023-04-26T08:18:25.698Z,2240.00
2023-04-26T08:19:25.656Z,2175.00
2023-04-26T08:20:25.620Z,1823.00
2023-04-26T08:21:25.583Z,1670.00
2023-04-26T08:22:25.542Z,1601.00
2023-04-26T08:23:25.522Z,1485.00
2023-04-26T08:24:26.392Z,1430.00
2023-04-26T08:25:26.300Z,1349.00
2023-04-26T08:26:25.452Z,1316.00
2023-04-26T08:27:25.422Z,1122.00
2023-04-26T08:28:25.397Z,1010.00
2023-04-26T08:29:25.394Z,1009.00
2023-04-26T08:30:25.375Z,971.00
2023-04-26T08:31:25.452Z,951.00
2023-04-26T08:32:25.374Z,956.00
2023-04-26T08:33:25.302Z,958.00
2023-04-26T08:34:25.281Z,974.00
2023-04-26T08:35:25.258Z,1014.00
2023-04-26T08:36:25.229Z,1010.00
2023-04-26T08:37:25.348Z,1003.00
2023-04-26T08:38:25.189Z,1002.00
2023-04-26T08:39:25.161Z,1009.00
2023-04-26T08:40:25.136Z,1030.00
2023-04-26T08:41:25.102Z,1025.00
2023-04-26T08:42:25.084Z,1038.00
2023-04-26T08:43:25.061Z,1055.00
2023-04-26T08:44:25.056Z,1164.00
2023-04-26T08:45:25.051Z,1126.00
2023-04-26T08:46:25.003Z,1125.00
2023-04-26T08:47:24.965Z,1111.00
2023-04-26T08:48:24.926Z,1099.00
2023-04-26T08:49:25.406Z,1190.00
2023-04-26T08:50:24.961Z,1150.00
2023-04-26T08:51:24.824Z,1070.00
2023-04-26T08:52:24.785Z,1080.00
2023-04-26T08:53:24.756Z,1097.00
2023-04-26T08:54:24.772Z,1103.00
2023-04-26T08:55:24.770Z,1109.00
2023-04-26T08:56:24.728Z,1108.00
2023-04-26T08:57:24.778Z,1086.00
2023-04-26T08:58:24.829Z,1086.00
2023-04-26T08:59:24.826Z,1095.00
2023-04-26T09:00:24.876Z,1099.00
2023-04-26T09:01:24.957Z,1103.00
2023-04-26T09:02:25.245Z,1113.00
2023-04-26T09:03:25.093Z,1117.00
2023-04-26T09:04:25.165Z,1116.00
2023-04-26T09:05:25.072Z,1115.00
2023-04-26T09:06:25.090Z,1106.00
2023-04-26T09:07:25.122Z,1095.00
2023-04-26T09:08:26.096Z,1106.00
2023-04-26T09:09:25.496Z,1115.00
2023-04-26T09:10:25.039Z,1106.00
2023-04-26T09:11:25.004Z,1105.00
2023-04-26T09:12:24.979Z,1090.00
2023-04-26T09:13:24.928Z,1092.00
2023-04-26T09:14:24.904Z,1098.00
2023-04-26T09:15:24.879Z,1192.00
2023-04-26T09:16:24.959Z,1254.00
2023-04-26T09:17:24.968Z,1296.00
2023-04-26T09:18:24.965Z,1294.00
2023-04-26T09:19:24.992Z,1310.00
2023-04-26T09:20:25.014Z,1310.00
2023-04-26T09:21:25.038Z,1311.00
2023-04-26T09:22:25.089Z,1306.00
2023-04-26T09:23:25.112Z,1309.00
2023-04-26T09:24:25.171Z,1308.00
2023-04-26T09:25:25.900Z,1307.00
2023-04-26T09:26:25.193Z,1304.00
2023-04-26T09:27:25.830Z,1305.00
2023-04-26T09:28:25.302Z,1304.00
2023-04-26T09:29:25.289Z,1301.00
2023-04-26T09:30:25.318Z,1299.00
2023-04-26T09:31:25.381Z,1295.00
2023-04-26T09:32:25.382Z,1293.00
2023-04-26T09:33:25.506Z,1292.00
2023-04-26T09:34:25.463Z,1291.00
2023-04-26T09:35:25.452Z,1289.00
2023-04-26T09:36:25.479Z,1287.00
2023-04-26T09:37:25.506Z,1287.00
2023-04-26T09:38:25.598Z,1283.00
2023-04-26T09:39:25.538Z,1280.00
2023-04-26T09:40:25.568Z,1282.00
2023-04-26T09:41:26.330Z,1278.00
2023-04-26T09:42:25.553Z,1273.00
2023-04-26T09:43:25.576Z,1272.00
2023-04-26T09:44:25.615Z,1271.00
2023-04-26T09:45:25.598Z,1269.00
2023-04-26T09:46:25.725Z,1266.00
2023-04-26T09:47:25.760Z,1269.00
2023-04-26T09:48:25.754Z,1270.00
2023-04-26T09:49:25.748Z,1266.00
2023-04-26T09:50:25.761Z,1265.00
2023-04-26T09:51:25.762Z,1260.00
2023-04-26T09:52:25.798Z,1259.00
2023-04-26T09:53:25.841Z,1265.00
2023-04-26T09:54:25.843Z,1263.00
2023-04-26T09:55:34.774Z,1263.00
2023-04-26T09:56:26.814Z,1262.00
2023-04-26T09:57:26.770Z,1262.00
2023-04-26T09:58:25.745Z,1263.00
2023-04-26T09:59:25.752Z,1267.00
2023-04-26T10:00:25.715Z,1265.00
2023-04-26T10:01:25.829Z,1264.00
2023-04-26T10:02:25.737Z,1264.00
2023-04-26T10:03:25.689Z,1263.00
2023-04-26T10:04:25.653Z,1262.00
2023-04-26T10:05:25.552Z,1262.00
2023-04-26T10:06:25.522Z,1258.00
2023-04-26T10:07:25.496Z,1255.00
2023-04-26T10:08:25.466Z,1254.00
2023-04-26T10:09:25.436Z,1254.00
2023-04-26T10:10:25.395Z,1250.00
2023-04-26T10:11:25.373Z,1250.00
2023-04-26T10:12:25.333Z,1250.00
2023-04-26T10:13:25.310Z,1250.00
2023-04-26T10:14:25.266Z,1248.00
2023-04-26T10:15:25.233Z,1249.00
2023-04-26T10:16:25.208Z,1245.00
2023-04-26T10:17:25.217Z,1248.00
2023-04-26T10:18:25.150Z,1247.00
2023-04-26T10:19:25.098Z,1241.00
2023-04-26T10:20:25.061Z,1237.00
2023-04-26T10:21:25.105Z,1235.00
2023-04-26T10:22:25.011Z,1235.00
2023-04-26T10:23:24.974Z,1239.00
2023-04-26T10:24:24.949Z,1240.00
2023-04-26T10:25:24.932Z,1242.00
2023-04-26T10:26:24.908Z,1242.00
2023-04-26T10:27:24.883Z,1240.00
2023-04-26T10:28:24.858Z,1239.00
2023-04-26T10:29:24.828Z,1238.00
2023-04-26T10:30:24.803Z,1232.00
2023-04-26T10:31:24.817Z,1232.00
2023-04-26T10:32:24.751Z,1235.00
2023-04-26T10:33:24.804Z,1237.00
2023-04-26T10:34:24.700Z,1238.00
2023-04-26T10:35:24.702Z,1238.00
2023-04-26T10:36:24.685Z,1234.00
2023-04-26T10:37:24.640Z,1234.00
2023-04-26T10:38:24.628Z,1233.00
2023-04-26T10:39:24.663Z,1232.00
2023-04-26T10:40:24.740Z,1235.00
2023-04-26T10:41:24.753Z,1236.00
2023-04-26T10:42:25.874Z,1234.00
2023-04-26T10:43:26.121Z,1232.00
2023-04-26T10:44:24.811Z,1230.00
2023-04-26T10:45:24.847Z,1229.00
2023-04-26T10:46:24.882Z,1228.00
2023-04-26T10:47:24.929Z,1226.00
2023-04-26T10:48:24.898Z,1221.00
2023-04-26T10:49:26.648Z,1220.00
2023-04-26T10:50:24.911Z,1217.00
2023-04-26T10:51:24.944Z,1214.00
2023-04-26T10:52:24.964Z,1214.00
2023-04-26T10:53:24.968Z,1209.00
2023-04-26T10:54:24.976Z,1206.00
2023-04-26T10:55:25.540Z,1203.00
2023-04-26T10:56:24.968Z,1201.00
2023-04-26T10:57:24.975Z,1194.00
2023-04-26T10:58:25.019Z,1194.00
2023-04-26T10:59:39.710Z,1196.00
2023-04-26T11:00:26.784Z,1195.00
2023-04-26T11:01:25.073Z,1194.00
2023-04-26T11:02:25.150Z,1192.00
2023-04-26T11:03:25.362Z,1194.00
2023-04-26T11:04:25.268Z,1194.00
2023-04-26T11:05:25.522Z,1194.00
2023-04-26T11:06:25.192Z,1194.00
2023-04-26T11:07:25.217Z,1194.00
2023-04-26T11:08:25.208Z,1193.00
2023-04-26T11:09:25.179Z,1188.00
2023-04-26T11:10:25.201Z,1188.00
2023-04-26T11:11:25.272Z,1187.00
2023-04-26T11:12:25.251Z,1188.00
2023-04-26T11:13:25.267Z,1186.00
2023-04-26T11:14:25.337Z,1191.00
2023-04-26T11:15:25.378Z,1191.00
2023-04-26T11:16:25.453Z,1190.00
2023-04-26T11:17:25.529Z,1189.00
2023-04-26T11:18:25.515Z,1187.00
2023-04-26T11:19:25.504Z,1185.00
2023-04-26T11:20:25.525Z,1182.00
2023-04-26T11:21:25.556Z,1182.00
2023-04-26T11:22:25.611Z,1185.00
2023-04-26T11:23:25.633Z,1184.00
2023-04-26T11:24:25.644Z,1181.00
2023-04-26T11:25:25.671Z,1178.00
2023-04-26T11:26:25.860Z,1179.00
2023-04-26T11:27:25.752Z,1178.00
2023-04-26T11:28:25.777Z,1178.00
2023-04-26T11:29:25.812Z,1176.00
2023-04-26T11:30:25.890Z,1177.00
2023-04-26T11:31:25.919Z,1177.00
2023-04-26T11:32:25.903Z,1179.00
2023-04-26T11:33:25.887Z,1178.00
2023-04-26T11:34:25.895Z,1179.00
2023-04-26T11:35:25.956Z,1179.00
2023-04-26T11:36:25.966Z,1179.00
2023-04-26T11:37:25.963Z,1177.00
2023-04-26T11:38:25.970Z,1177.00
2023-04-26T11:39:25.991Z,1177.00
2023-04-26T11:40:26.013Z,1177.00
2023-04-26T11:41:26.035Z,1176.00
2023-04-26T11:42:26.070Z,1172.00
2023-04-26T11:43:26.111Z,1172.00
2023-04-26T11:44:26.093Z,1171.00
2023-04-26T11:45:26.145Z,1170.00
2023-04-26T11:46:26.270Z,1166.00
2023-04-26T11:47:26.241Z,1165.00
2023-04-26T11:48:26.294Z,1163.00
2023-04-26T11:49:26.297Z,1167.00
2023-04-26T11:50:26.339Z,1166.00
2023-04-26T11:51:26.370Z,1166.00
2023-04-26T11:52:26.430Z,1167.00
2023-04-26T11:53:26.428Z,1166.00
2023-04-26T11:54:26.465Z,1163.00
2023-04-26T11:55:26.470Z,1161.00
2023-04-26T11:56:26.492Z,1158.00
2023-04-26T11:57:26.527Z,1156.00
2023-04-26T11:58:26.600Z,1160.00
2023-04-26T11:59:26.614Z,1158.00
2023-04-26T12:00:26.644Z,1159.00
2023-04-26T12:01:26.669Z,1161.00
2023-04-26T12:02:26.803Z,1160.00
2023-04-26T12:03:26.987Z,1159.00
2023-04-26T12:04:29.074Z,1160.00
2023-04-26T12:05:26.849Z,1162.00
2023-04-26T12:06:26.704Z,1159.00
2023-04-26T12:07:26.695Z,1158.00